sensor_id;sensor_type;location;lat;lon;timestamp;pressure;altitude;pressure_sealevel;temperature;humidity
19624;BME280;9959;49.798;9.928;2023-07-29T00:01:27;99113.16;;;17.55;100.00
19624;BME280;9959;49.798;9.928;2023-07-29T00:03:54;99108.53;;;17.50;100.00
19624;BME280;9959;49.798;9.928;2023-07-29T00:06:20;99109.34;;;17.46;100.00
19624;BME280;9959;49.798;9.928;2023-07-29T00:08:47;99112.06;;;17.41;100.00
19624;BME280;9959;49.798;9.928;2023-07-29T00:11:14;99116.41;;;17.42;100.00
19624;BME280;9959;49.798;9.928;2023-07-29T00:13:41;99111.22;;;17.35;100.00
19624;BME280;9959;49.798;9.928;2023-07-29T00:16:08;99108.78;;;17.39;100.00
19624;BME280;9959;49.798;9.928;2023-07-29T00:18:35;99113.69;;;17.37;100.00
19624;BME280;9959;49.798;9.928;2023-07-29T00:21:01;99108.78;;;17.34;100.00
19624;BME280;9959;49.798;9.928;2023-07-29T00:23:29;99115.59;;;17.36;100.00
19624;BME280;9959;49.798;9.928;2023-07-29T00:25:55;99112.31;;;17.34;100.00
19624;BME280;9959;49.798;9.928;2023-07-29T00:28:22;99112.06;;;17.41;100.00
19624;BME280;9959;49.798;9.928;2023-07-29T00:30:49;99116.94;;;17.39;100.00
19624;BME280;9959;49.798;9.928;2023-07-29T00:33:16;99118.53;;;17.24;100.00
19624;BME280;9959;49.798;9.928;2023-07-29T00:35:43;99114.72;;;17.15;100.00
19624;BME280;9959;49.798;9.928;2023-07-29T00:38:11;99106.56;;;17.20;100.00
19624;BME280;9959;49.798;9.928;2023-07-29T00:40:37;99115.00;;;17.19;100.00
19624;BME280;9959;49.798;9.928;2023-07-29T00:43:04;99113.16;;;17.45;100.00
19624;BME280;9959;49.798;9.928;2023-07-29T00:45:32;99112.03;;;17.20;100.00
19624;BME280;9959;49.798;9.928;2023-07-29T00:48:00;99108.72;;;17.13;100.00
19624;BME280;9959;49.798;9.928;2023-07-29T00:50:28;99103.84;;;17.25;100.00
19624;BME280;9959;49.798;9.928;2023-07-29T00:52:56;99110.69;;;17.43;100.00
19624;BME280;9959;49.798;9.928;2023-07-29T00:55:24;99110.38;;;17.24;100.00
19624;BME280;9959;49.798;9.928;2023-07-29T00:57:51;99116.94;;;17.34;100.00
19624;BME280;9959;49.798;9.928;2023-07-29T01:02:50;99128.25;;;17.00;100.00
19624;BME280;9959;49.798;9.928;2023-07-29T01:05:17;99111.38;;;16.93;100.00
19624;BME280;9959;49.798;9.928;2023-07-29T01:08:03;99114.13;;;17.03;100.00
19624;BME280;9959;49.798;9.928;2023-07-29T01:18:38;99089.16;;;17.37;100.00
19624;BME280;9959;49.798;9.928;2023-07-29T01:21:08;99092.44;;;17.34;100.00
19624;BME280;9959;49.798;9.928;2023-07-29T01:23:35;99091.31;;;17.30;100.00
19624;BME280;9959;49.798;9.928;2023-07-29T01:26:03;99080.47;;;17.35;100.00
19624;BME280;9959;49.798;9.928;2023-07-29T01:28:30;99082.09;;;17.36;100.00
19624;BME280;9959;49.798;9.928;2023-07-29T01:31:16;99074.50;;;17.48;100.00
19624;BME280;9959;49.798;9.928;2023-07-29T01:33:51;99066.28;;;17.33;100.00
19624;BME280;9959;49.798;9.928;2023-07-29T01:36:21;99074.97;;;17.24;100.00
19624;BME280;9959;49.798;9.928;2023-07-29T01:38:51;99070.09;;;17.26;100.00
19624;BME280;9959;49.798;9.928;2023-07-29T01:41:18;99066.25;;;17.12;100.00
19624;BME280;9959;49.798;9.928;2023-07-29T01:43:46;99066.25;;;17.07;100.00
19624;BME280;9959;49.798;9.928;2023-07-29T01:46:15;99076.84;;;17.09;100.00
19624;BME280;9959;49.798;9.928;2023-07-29T01:48:42;99069.53;;;17.14;100.00
19624;BME280;9959;49.798;9.928;2023-07-29T01:51:11;99064.88;;;17.05;100.00
19624;BME280;9959;49.798;9.928;2023-07-29T01:53:38;99055.41;;;17.22;100.00
19624;BME280;9959;49.798;9.928;2023-07-29T01:56:05;99053.47;;;17.18;100.00
19624;BME280;9959;49.798;9.928;2023-07-29T01:58:32;99054.22;;;16.98;100.00
19624;BME280;9959;49.798;9.928;2023-07-29T02:00:59;99071.13;;;16.95;100.00
19624;BME280;9959;49.798;9.928;2023-07-29T02:03:26;99053.41;;;16.87;100.00
19624;BME280;9959;49.798;9.928;2023-07-29T02:05:53;99049.63;;;16.94;100.00
19624;BME280;9959;49.798;9.928;2023-07-29T02:08:19;99047.44;;;17.01;100.00
19624;BME280;9959;49.798;9.928;2023-07-29T02:10:46;99048.53;;;17.05;100.00
19624;BME280;9959;49.798;9.928;2023-07-29T02:13:15;99052.09;;;17.10;100.00
19624;BME280;9959;49.798;9.928;2023-07-29T02:15:42;99055.09;;;17.09;100.00
19624;BME280;9959;49.798;9.928;2023-07-29T02:18:09;99047.78;;;17.19;100.00
19624;BME280;9959;49.798;9.928;2023-07-29T02:20:36;99045.59;;;17.37;100.00
19624;BME280;9959;49.798;9.928;2023-07-29T02:23:03;99039.88;;;17.28;100.00
19624;BME280;9959;49.798;9.928;2023-07-29T02:25:30;99041.78;;;17.27;100.00
19624;BME280;9959;49.798;9.928;2023-07-29T02:27:57;99034.16;;;17.30;100.00
19624;BME280;9959;49.798;9.928;2023-07-29T02:30:24;99031.69;;;17.28;100.00
19624;BME280;9959;49.798;9.928;2023-07-29T02:32:50;99033.59;;;17.27;100.00
19624;BME280;9959;49.798;9.928;2023-07-29T02:35:17;99022.72;;;17.27;100.00
19624;BME280;9959;49.798;9.928;2023-07-29T02:37:44;99034.69;;;17.32;100.00
19624;BME280;9959;49.798;9.928;2023-07-29T02:40:12;99031.41;;;17.24;100.00
19624;BME280;9959;49.798;9.928;2023-07-29T02:42:38;99036.31;;;17.27;100.00
19624;BME280;9959;49.798;9.928;2023-07-29T02:45:06;99036.88;;;17.24;100.00
19624;BME280;9959;49.798;9.928;2023-07-29T02:47:37;99033.06;;;17.20;100.00
19624;BME280;9959;49.798;9.928;2023-07-29T02:50:04;99032.78;;;17.32;100.00
19624;BME280;9959;49.798;9.928;2023-07-29T02:52:31;99038.53;;;17.36;100.00
19624;BME280;9959;49.798;9.928;2023-07-29T02:54:58;99038.53;;;17.36;100.00
19624;BME280;9959;49.798;9.928;2023-07-29T02:57:25;99032.53;;;17.34;100.00
19624;BME280;9959;49.798;9.928;2023-07-29T02:59:52;99030.06;;;17.32;100.00
19624;BME280;9959;49.798;9.928;2023-07-29T03:02:19;99026.00;;;17.45;100.00
19624;BME280;9959;49.798;9.928;2023-07-29T03:04:47;99017.31;;;17.43;100.00
19624;BME280;9959;49.798;9.928;2023-07-29T03:07:14;99015.97;;;17.66;100.00
19624;BME280;9959;49.798;9.928;2023-07-29T03:09:41;99018.94;;;17.84;100.00
19624;BME280;9959;49.798;9.928;2023-07-29T03:12:08;99027.09;;;17.79;100.00
19624;BME280;9959;49.798;9.928;2023-07-29T03:14:35;99062.78;;;17.57;100.00
19624;BME280;9959;49.798;9.928;2023-07-29T03:17:03;99056.75;;;17.15;100.00
19624;BME280;9959;49.798;9.928;2023-07-29T03:19:31;99027.34;;;17.17;100.00
19624;BME280;9959;49.798;9.928;2023-07-29T03:21:58;99033.03;;;16.95;100.00
19624;BME280;9959;49.798;9.928;2023-07-29T03:24:24;99033.56;;;16.92;100.00
19624;BME280;9959;49.798;9.928;2023-07-29T03:26:51;99029.19;;;16.86;100.00
19624;BME280;9959;49.798;9.928;2023-07-29T03:29:18;99027.28;;;16.86;100.00
19624;BME280;9959;49.798;9.928;2023-07-29T03:31:45;99031.91;;;16.91;100.00
19624;BME280;9959;49.798;9.928;2023-07-29T03:34:12;99029.19;;;16.91;100.00
19624;BME280;9959;49.798;9.928;2023-07-29T03:36:39;99026.19;;;16.87;100.00
19624;BME280;9959;49.798;9.928;2023-07-29T03:39:06;99017.75;;;16.89;100.00
19624;BME280;9959;49.798;9.928;2023-07-29T03:41:34;99007.94;;;16.83;100.00
19624;BME280;9959;49.798;9.928;2023-07-29T03:44:01;99017.22;;;16.97;100.00
19624;BME280;9959;49.798;9.928;2023-07-29T03:46:27;99012.03;;;16.85;100.00
19624;BME280;9959;49.798;9.928;2023-07-29T03:48:54;98997.09;;;16.88;100.00
19624;BME280;9959;49.798;9.928;2023-07-29T03:51:21;99001.72;;;16.92;100.00
19624;BME280;9959;49.798;9.928;2023-07-29T03:53:49;99003.09;;;16.95;100.00
19624;BME280;9959;49.798;9.928;2023-07-29T03:56:16;99000.38;;;16.95;100.00
19624;BME280;9959;49.798;9.928;2023-07-29T03:58:43;98987.84;;;17.04;100.00
19624;BME280;9959;49.798;9.928;2023-07-29T04:01:10;98983.75;;;17.02;100.00
19624;BME280;9959;49.798;9.928;2023-07-29T04:03:37;98988.38;;;17.01;100.00
19624;BME280;9959;49.798;9.928;2023-07-29T04:06:04;98992.19;;;17.00;100.00
19624;BME280;9959;49.798;9.928;2023-07-29T04:08:31;98978.59;;;16.95;100.00
19624;BME280;9959;49.798;9.928;2023-07-29T04:11:01;98978.59;;;16.95;100.00
19624;BME280;9959;49.798;9.928;2023-07-29T04:13:28;98971.22;;;16.85;100.00
19624;BME280;9959;49.798;9.928;2023-07-29T04:15:54;98970.13;;;16.81;100.00
19624;BME280;9959;49.798;9.928;2023-07-29T04:18:21;98977.50;;;16.96;100.00
19624;BME280;9959;49.798;9.928;2023-07-29T04:20:48;98974.19;;;16.79;100.00
19624;BME280;9959;49.798;9.928;2023-07-29T04:23:15;98973.41;;;16.88;100.00
19624;BME280;9959;49.798;9.928;2023-07-29T04:25:42;98970.16;;;16.86;100.00
19624;BME280;9959;49.798;9.928;2023-07-29T04:28:09;98957.66;;;16.96;100.00
19624;BME280;9959;49.798;9.928;2023-07-29T04:30:36;98956.53;;;17.02;100.00
19624;BME280;9959;49.798;9.928;2023-07-29T04:33:03;98955.19;;;16.94;100.00
19624;BME280;9959;49.798;9.928;2023-07-29T04:35:29;98950.03;;;16.92;100.00
19624;BME280;9959;49.798;9.928;2023-07-29T04:37:56;98952.19;;;16.85;100.00
19624;BME280;9959;49.798;9.928;2023-07-29T04:40:23;98962.81;;;17.02;100.00
19624;BME280;9959;49.798;9.928;2023-07-29T04:42:51;98973.69;;;16.92;100.00
19624;BME280;9959;49.798;9.928;2023-07-29T04:45:18;98980.22;;;17.01;100.00
19624;BME280;9959;49.798;9.928;2023-07-29T04:47:45;98979.69;;;17.09;100.00
19624;BME280;9959;49.798;9.928;2023-07-29T04:50:12;98968.81;;;17.09;100.00
19624;BME280;9959;49.798;9.928;2023-07-29T04:52:39;98961.75;;;17.13;100.00
19624;BME280;9959;49.798;9.928;2023-07-29T04:55:06;98963.66;;;17.13;100.00
19624;BME280;9959;49.798;9.928;2023-07-29T04:57:33;98954.94;;;17.16;100.00
19624;BME280;9959;49.798;9.928;2023-07-29T05:00:00;98951.97;;;17.22;100.00
19624;BME280;9959;49.798;9.928;2023-07-29T05:02:27;98943.22;;;17.41;100.00
19624;BME280;9959;49.798;9.928;2023-07-29T05:04:54;98953.31;;;17.20;100.00
19624;BME280;9959;49.798;9.928;2023-07-29T05:07:21;98962.28;;;17.31;100.00
19624;BME280;9959;49.798;9.928;2023-07-29T05:09:48;98950.84;;;17.23;100.00
19624;BME280;9959;49.798;9.928;2023-07-29T05:12:15;98957.66;;;17.16;100.00
19624;BME280;9959;49.798;9.928;2023-07-29T05:14:42;98960.41;;;17.21;100.00
19624;BME280;9959;49.798;9.928;2023-07-29T05:17:09;98954.66;;;17.27;100.00
19624;BME280;9959;49.798;9.928;2023-07-29T05:19:36;98960.94;;;17.48;100.00
19624;BME280;9959;49.798;9.928;2023-07-29T05:22:03;98963.38;;;17.40;100.00
19624;BME280;9959;49.798;9.928;2023-07-29T05:24:30;98957.09;;;17.59;100.00
19624;BME280;9959;49.798;9.928;2023-07-29T05:26:57;98955.75;;;17.67;100.00
19624;BME280;9959;49.798;9.928;2023-07-29T05:29:24;98967.19;;;17.69;100.00
19624;BME280;9959;49.798;9.928;2023-07-29T05:31:51;98973.97;;;17.56;100.00
19624;BME280;9959;49.798;9.928;2023-07-29T05:34:18;98981.34;;;17.41;100.00
19624;BME280;9959;49.798;9.928;2023-07-29T05:36:44;98983.25;;;17.45;100.00
19624;BME280;9959;49.798;9.928;2023-07-29T05:39:11;98974.56;;;17.48;100.00
19624;BME280;9959;49.798;9.928;2023-07-29T05:41:38;98980.25;;;17.57;100.00
19624;BME280;9959;49.798;9.928;2023-07-29T05:44:05;98981.63;;;17.49;100.00
19624;BME280;9959;49.798;9.928;2023-07-29T05:46:36;98980.25;;;17.52;100.00
19624;BME280;9959;49.798;9.928;2023-07-29T05:49:03;98987.88;;;17.55;100.00
19624;BME280;9959;49.798;9.928;2023-07-29T05:51:30;98996.91;;;17.66;100.00
19624;BME280;9959;49.798;9.928;2023-07-29T05:53:57;98982.47;;;17.75;100.00
19624;BME280;9959;49.798;9.928;2023-07-29T05:56:23;98990.63;;;17.70;100.00
19624;BME280;9959;49.798;9.928;2023-07-29T05:58:50;98997.72;;;17.71;100.00
19624;BME280;9959;49.798;9.928;2023-07-29T06:01:17;99001.75;;;17.89;100.00
19624;BME280;9959;49.798;9.928;2023-07-29T06:03:48;99003.13;;;17.91;100.00
19624;BME280;9959;49.798;9.928;2023-07-29T06:06:15;99009.66;;;17.90;100.00
19624;BME280;9959;49.798;9.928;2023-07-29T06:08:42;99013.22;;;17.91;100.00
19624;BME280;9959;49.798;9.928;2023-07-29T06:11:09;99022.19;;;17.97;100.00
19624;BME280;9959;49.798;9.928;2023-07-29T06:13:36;99026.84;;;18.01;100.00
19624;BME280;9959;49.798;9.928;2023-07-29T06:16:03;99020.50;;;18.16;100.00
19624;BME280;9959;49.798;9.928;2023-07-29T06:18:30;99027.06;;;18.20;100.00
19624;BME280;9959;49.798;9.928;2023-07-29T06:20:57;99024.34;;;18.15;100.00
19624;BME280;9959;49.798;9.928;2023-07-29T06:23:24;99033.59;;;18.14;100.00
19624;BME280;9959;49.798;9.928;2023-07-29T06:25:51;99024.34;;;18.15;100.00
19624;BME280;9959;49.798;9.928;2023-07-29T06:28:18;99018.06;;;18.14;100.00
19624;BME280;9959;49.798;9.928;2023-07-29T06:30:45;99014.53;;;18.09;100.00
19624;BME280;9959;49.798;9.928;2023-07-29T06:33:12;99004.16;;;18.16;100.00
19624;BME280;9959;49.798;9.928;2023-07-29T06:35:39;98990.25;;;18.17;100.00
19624;BME280;9959;49.798;9.928;2023-07-29T06:38:06;98989.97;;;18.19;100.00
19624;BME280;9959;49.798;9.928;2023-07-29T06:40:33;98988.59;;;18.21;100.00
19624;BME280;9959;49.798;9.928;2023-07-29T06:43:00;98998.16;;;18.19;100.00
19624;BME280;9959;49.798;9.928;2023-07-29T06:45:27;98992.16;;;18.22;100.00
19624;BME280;9959;49.798;9.928;2023-07-29T06:47:54;98991.34;;;18.21;100.00
19624;BME280;9959;49.798;9.928;2023-07-29T06:50:21;99011.81;;;18.09;100.00
19624;BME280;9959;49.798;9.928;2023-07-29T06:52:48;99019.97;;;18.09;100.00
19624;BME280;9959;49.798;9.928;2023-07-29T06:55:15;99012.94;;;18.03;100.00
19624;BME280;9959;49.798;9.928;2023-07-29T06:57:42;98992.19;;;18.07;100.00
19624;BME280;9959;49.798;9.928;2023-07-29T07:00:09;99006.88;;;18.11;100.00
19624;BME280;9959;49.798;9.928;2023-07-29T07:02:36;99002.25;;;18.21;100.00
19624;BME280;9959;49.798;9.928;2023-07-29T07:05:03;99007.13;;;18.24;100.00
19624;BME280;9959;49.798;9.928;2023-07-29T07:07:30;99022.16;;;18.12;100.00
19624;BME280;9959;49.798;9.928;2023-07-29T07:09:57;99025.97;;;18.11;100.00
19624;BME280;9959;49.798;9.928;2023-07-29T07:12:27;99022.75;;;17.99;100.00
19624;BME280;9959;49.798;9.928;2023-07-29T07:14:53;99015.13;;;18.01;100.00
19624;BME280;9959;49.798;9.928;2023-07-29T07:17:20;99009.13;;;17.88;100.00
19624;BME280;9959;49.798;9.928;2023-07-29T07:19:47;99018.13;;;17.79;100.00
19624;BME280;9959;49.798;9.928;2023-07-29T07:22:14;99012.41;;;17.85;100.00
19624;BME280;9959;49.798;9.928;2023-07-29T07:24:41;98999.31;;;18.03;100.00
19624;BME280;9959;49.798;9.928;2023-07-29T07:27:08;98998.22;;;18.04;100.00
19624;BME280;9959;49.798;9.928;2023-07-29T07:29:35;99003.34;;;18.10;100.00
19624;BME280;9959;49.798;9.928;2023-07-29T07:32:02;98996.97;;;18.45;100.00
19624;BME280;9959;49.798;9.928;2023-07-29T07:34:29;98989.31;;;18.47;100.00
19624;BME280;9959;49.798;9.928;2023-07-29T07:36:56;98996.94;;;18.55;100.00
19624;BME280;9959;49.798;9.928;2023-07-29T07:39:23;98984.50;;;18.88;100.00
19624;BME280;9959;49.798;9.928;2023-07-29T07:41:50;98978.03;;;18.74;100.00
19624;BME280;9959;49.798;9.928;2023-07-29T07:44:17;98989.78;;;18.75;100.00
19624;BME280;9959;49.798;9.928;2023-07-29T07:46:46;98994.75;;;18.57;100.00
19624;BME280;9959;49.798;9.928;2023-07-29T07:49:13;99001.25;;;18.72;100.00
19624;BME280;9959;49.798;9.928;2023-07-29T07:51:41;98990.28;;;18.82;100.00
19624;BME280;9959;49.798;9.928;2023-07-29T07:54:09;98977.41;;;18.87;100.00
19624;BME280;9959;49.798;9.928;2023-07-29T07:56:36;98981.69;;;19.04;100.00
19624;BME280;9959;49.798;9.928;2023-07-29T07:59:03;98972.84;;;19.56;100.00
19624;BME280;9959;49.798;9.928;2023-07-29T08:01:39;98983.72;;;19.61;100.00
19624;BME280;9959;49.798;9.928;2023-07-29T08:04:07;98990.31;;;19.55;100.00
19624;BME280;9959;49.798;9.928;2023-07-29T08:06:34;98986.41;;;19.95;100.00
19624;BME280;9959;49.798;9.928;2023-07-29T08:09:02;98974.66;;;19.94;100.00
19624;BME280;9959;49.798;9.928;2023-07-29T08:11:30;98986.72;;;20.84;100.00
19624;BME280;9959;49.798;9.928;2023-07-29T08:13:58;98996.84;;;20.83;100.00
19624;BME280;9959;49.798;9.928;2023-07-29T08:16:25;98994.22;;;20.54;100.00
19624;BME280;9959;49.798;9.928;2023-07-29T08:18:52;98993.63;;;20.57;100.00
19624;BME280;9959;49.798;9.928;2023-07-29T08:21:19;98998.81;;;20.35;100.00
19624;BME280;9959;49.798;9.928;2023-07-29T08:23:46;98995.72;;;20.66;100.00
19624;BME280;9959;49.798;9.928;2023-07-29T08:26:13;99005.41;;;20.58;100.00
19624;BME280;9959;49.798;9.928;2023-07-29T08:28:40;99004.41;;;20.91;100.00
19624;BME280;9959;49.798;9.928;2023-07-29T08:31:07;99020.03;;;20.91;100.00
19624;BME280;9959;49.798;9.928;2023-07-29T08:33:34;99014.09;;;20.41;100.00
19624;BME280;9959;49.798;9.928;2023-07-29T08:36:02;99013.41;;;20.25;100.00
19624;BME280;9959;49.798;9.928;2023-07-29T08:38:29;99025.38;;;20.06;100.00
19624;BME280;9959;49.798;9.928;2023-07-29T08:43:33;99041.13;;;19.90;100.00
19624;BME280;9959;49.798;9.928;2023-07-29T08:46:01;99051.63;;;19.39;100.00
19624;BME280;9959;49.798;9.928;2023-07-29T08:48:48;99030.56;;;19.00;100.00
19624;BME280;9959;49.798;9.928;2023-07-29T08:51:17;99022.06;;;19.07;100.00
19624;BME280;9959;49.798;9.928;2023-07-29T08:53:46;99019.38;;;19.41;100.00
19624;BME280;9959;49.798;9.928;2023-07-29T08:56:13;99020.38;;;19.55;100.00
19624;BME280;9959;49.798;9.928;2023-07-29T08:58:41;99020.78;;;20.01;100.00
19624;BME280;9959;49.798;9.928;2023-07-29T09:01:08;99024.31;;;20.02;100.00
19624;BME280;9959;49.798;9.928;2023-07-29T09:03:36;99027.53;;;20.61;100.00
19624;BME280;9959;49.798;9.928;2023-07-29T09:06:03;99022.28;;;20.65;100.00
19624;BME280;9959;49.798;9.928;2023-07-29T09:08:30;99020.19;;;20.57;100.00
19624;BME280;9959;49.798;9.928;2023-07-29T09:10:58;99029.88;;;20.49;100.00
19624;BME280;9959;49.798;9.928;2023-07-29T09:13:26;99021.25;;;20.37;100.00
19624;BME280;9959;49.798;9.928;2023-07-29T09:15:57;99013.09;;;20.56;100.00
19624;BME280;9959;49.798;9.928;2023-07-29T09:18:26;99000.03;;;20.72;100.00
19624;BME280;9959;49.798;9.928;2023-07-29T09:20:54;99003.69;;;20.43;100.00
19624;BME280;9959;49.798;9.928;2023-07-29T09:23:21;99012.50;;;20.35;100.00
19624;BME280;9959;49.798;9.928;2023-07-29T09:25:48;99016.31;;;20.34;100.00
19624;BME280;9959;49.798;9.928;2023-07-29T09:28:17;99018.47;;;20.42;100.00
19624;BME280;9959;49.798;9.928;2023-07-29T09:30:46;99007.91;;;20.02;100.00
19624;BME280;9959;49.798;9.928;2023-07-29T09:33:13;99009.47;;;20.13;100.00
19624;BME280;9959;49.798;9.928;2023-07-29T09:35:41;99005.38;;;20.10;100.00
19624;BME280;9959;49.798;9.928;2023-07-29T09:38:08;99006.53;;;20.28;100.00
19624;BME280;9959;49.798;9.928;2023-07-29T09:40:41;99015.09;;;20.50;100.00
19624;BME280;9959;49.798;9.928;2023-07-29T09:43:09;99014.81;;;20.71;100.00
19624;BME280;9959;49.798;9.928;2023-07-29T09:45:37;99007.84;;;21.21;94.33
19624;BME280;9959;49.798;9.928;2023-07-29T09:48:04;99006.28;;;21.34;95.98
19624;BME280;9959;49.798;9.928;2023-07-29T09:50:36;98997.53;;;21.96;92.23
19624;BME280;9959;49.798;9.928;2023-07-29T09:53:03;99011.22;;;22.98;87.07
19624;BME280;9959;49.798;9.928;2023-07-29T09:55:33;99005.22;;;22.82;85.65
19624;BME280;9959;49.798;9.928;2023-07-29T09:58:01;99005.25;;;23.18;81.80
19624;BME280;9959;49.798;9.928;2023-07-29T10:00:31;99013.03;;;22.47;88.27
19624;BME280;9959;49.798;9.928;2023-07-29T10:02:59;99021.38;;;22.15;87.68
19624;BME280;9959;49.798;9.928;2023-07-29T10:05:27;99021.09;;;22.85;80.79
19624;BME280;9959;49.798;9.928;2023-07-29T10:07:55;99023.47;;;23.50;78.69
19624;BME280;9959;49.798;9.928;2023-07-29T10:10:23;99015.09;;;23.55;77.85
19624;BME280;9959;49.798;9.928;2023-07-29T10:12:50;99017.94;;;22.91;76.70
19624;BME280;9959;49.798;9.928;2023-07-29T10:15:17;99018.66;;;24.31;72.04
19624;BME280;9959;49.798;9.928;2023-07-29T10:17:45;99022.72;;;24.11;71.85
19624;BME280;9959;49.798;9.928;2023-07-29T10:20:15;99025.06;;;23.95;71.67
19624;BME280;9959;49.798;9.928;2023-07-29T10:22:46;99013.59;;;23.71;75.84
19624;BME280;9959;49.798;9.928;2023-07-29T10:25:15;99009.66;;;23.27;77.85
19624;BME280;9959;49.798;9.928;2023-07-29T10:27:53;98999.56;;;23.14;79.92
19624;BME280;9959;49.798;9.928;2023-07-29T10:30:24;98989.59;;;23.63;80.45
19624;BME280;9959;49.798;9.928;2023-07-29T10:32:51;99000.31;;;23.95;79.35
19624;BME280;9959;49.798;9.928;2023-07-29T10:35:20;98990.97;;;24.36;77.35
19624;BME280;9959;49.798;9.928;2023-07-29T10:37:47;98982.41;;;24.46;78.11
19624;BME280;9959;49.798;9.928;2023-07-29T10:40:17;98991.00;;;25.02;77.57
19624;BME280;9959;49.798;9.928;2023-07-29T10:43:02;98983.13;;;24.60;78.80
19624;BME280;9959;49.798;9.928;2023-07-29T10:45:38;98972.19;;;26.11;72.83
19624;BME280;9959;49.798;9.928;2023-07-29T10:54:09;98979.81;;;25.07;76.46
19624;BME280;9959;49.798;9.928;2023-07-29T10:56:40;98969.25;;;25.17;72.46
19624;BME280;9959;49.798;9.928;2023-07-29T11:02:15;98976.41;;;26.17;70.86
19624;BME280;9959;49.798;9.928;2023-07-29T11:04:49;98974.25;;;25.50;72.55
19624;BME280;9959;49.798;9.928;2023-07-29T11:18:08;98975.44;;;25.14;72.17
19624;BME280;9959;49.798;9.928;2023-07-29T11:20:36;98975.25;;;25.02;73.80
19624;BME280;9959;49.798;9.928;2023-07-29T11:23:03;98976.88;;;25.03;74.50
19624;BME280;9959;49.798;9.928;2023-07-29T11:25:31;98970.63;;;24.63;75.64
19624;BME280;9959;49.798;9.928;2023-07-29T11:28:00;98963.56;;;24.96;75.21
19624;BME280;9959;49.798;9.928;2023-07-29T11:30:31;98976.78;;;24.51;77.00
19624;BME280;9959;49.798;9.928;2023-07-29T11:32:58;98976.03;;;24.85;75.95
19624;BME280;9959;49.798;9.928;2023-07-29T11:35:27;98971.66;;;25.62;69.73
19624;BME280;9959;49.798;9.928;2023-07-29T11:37:55;98977.16;;;26.35;65.54
19624;BME280;9959;49.798;9.928;2023-07-29T11:40:25;98962.75;;;25.65;66.81
19624;BME280;9959;49.798;9.928;2023-07-29T11:42:52;98947.09;;;26.33;63.63
19624;BME280;9959;49.798;9.928;2023-07-29T11:45:20;98962.56;;;26.84;62.03
19624;BME280;9959;49.798;9.928;2023-07-29T11:47:51;98958.34;;;27.82;61.29
19624;BME280;9959;49.798;9.928;2023-07-29T11:50:18;98958.44;;;26.99;62.71
19624;BME280;9959;49.798;9.928;2023-07-29T11:52:46;98950.72;;;27.91;59.02
19624;BME280;9959;49.798;9.928;2023-07-29T11:55:14;98952.28;;;28.13;57.67
19624;BME280;9959;49.798;9.928;2023-07-29T11:57:43;98931.41;;;28.28;56.78
19624;BME280;9959;49.798;9.928;2023-07-29T12:00:11;98928.34;;;27.84;58.43
19624;BME280;9959;49.798;9.928;2023-07-29T12:02:41;98923.66;;;27.64;58.06
19624;BME280;9959;49.798;9.928;2023-07-29T12:05:09;98932.94;;;27.80;58.00
19624;BME280;9959;49.798;9.928;2023-07-29T12:07:38;98930.22;;;26.26;61.91
19624;BME280;9959;49.798;9.928;2023-07-29T12:10:06;98919.69;;;26.78;59.62
19624;BME280;9959;49.798;9.928;2023-07-29T12:12:40;98914.47;;;27.06;59.07
19624;BME280;9959;49.798;9.928;2023-07-29T12:15:10;98912.75;;;27.47;58.09
19624;BME280;9959;49.798;9.928;2023-07-29T12:17:41;98910.31;;;27.66;56.29
19624;BME280;9959;49.798;9.928;2023-07-29T12:20:09;98908.03;;;27.14;57.57
19624;BME280;9959;49.798;9.928;2023-07-29T12:22:37;98907.56;;;27.12;57.47
19624;BME280;9959;49.798;9.928;2023-07-29T12:25:04;98921.59;;;26.27;57.79
19624;BME280;9959;49.798;9.928;2023-07-29T12:27:31;98912.44;;;25.59;61.21
19624;BME280;9959;49.798;9.928;2023-07-29T12:30:01;98913.78;;;25.27;64.47
19624;BME280;9959;49.798;9.928;2023-07-29T12:32:30;98918.44;;;24.49;71.11
19624;BME280;9959;49.798;9.928;2023-07-29T12:34:57;98925.09;;;24.09;77.53
19624;BME280;9959;49.798;9.928;2023-07-29T12:37:31;98923.47;;;23.46;89.07
19624;BME280;9959;49.798;9.928;2023-07-29T12:39:59;98924.16;;;23.29;85.71
19624;BME280;9959;49.798;9.928;2023-07-29T12:42:26;98926.97;;;23.38;88.11
19624;BME280;9959;49.798;9.928;2023-07-29T12:44:53;98931.47;;;23.11;88.64
19624;BME280;9959;49.798;9.928;2023-07-29T12:47:20;98928.22;;;23.09;91.01
19624;BME280;9959;49.798;9.928;2023-07-29T12:49:46;98922.28;;;22.93;87.07
19624;BME280;9959;49.798;9.928;2023-07-29T12:52:13;98924.66;;;23.09;89.07
19624;BME280;9959;49.798;9.928;2023-07-29T12:54:40;98923.00;;;23.21;89.62
19624;BME280;9959;49.798;9.928;2023-07-29T12:57:08;98925.47;;;23.09;89.69
19624;BME280;9959;49.798;9.928;2023-07-29T12:59:35;98929.47;;;23.03;88.34
19624;BME280;9959;49.798;9.928;2023-07-29T13:02:02;98938.19;;;22.83;87.40
19624;BME280;9959;49.798;9.928;2023-07-29T13:04:32;98942.06;;;22.54;86.94
19624;BME280;9959;49.798;9.928;2023-07-29T13:06:58;98932.06;;;22.72;88.03
19624;BME280;9959;49.798;9.928;2023-07-29T13:09:26;98936.47;;;22.59;86.68
19624;BME280;9959;49.798;9.928;2023-07-29T13:11:53;98925.03;;;23.60;82.38
19624;BME280;9959;49.798;9.928;2023-07-29T13:14:20;98926.19;;;24.30;76.89
19624;BME280;9959;49.798;9.928;2023-07-29T13:16:47;98924.66;;;25.33;72.22
19624;BME280;9959;49.798;9.928;2023-07-29T13:19:14;98916.66;;;25.57;71.18
19624;BME280;9959;49.798;9.928;2023-07-29T13:21:40;98911.03;;;26.38;68.34
19624;BME280;9959;49.798;9.928;2023-07-29T13:24:07;98899.38;;;26.24;65.49
19624;BME280;9959;49.798;9.928;2023-07-29T13:26:34;98894.47;;;26.29;66.83
19624;BME280;9959;49.798;9.928;2023-07-29T13:29:02;98904.94;;;27.16;62.17
19624;BME280;9959;49.798;9.928;2023-07-29T13:31:34;98910.66;;;26.69;66.20
19624;BME280;9959;49.798;9.928;2023-07-29T13:34:01;98909.06;;;27.76;63.75
19624;BME280;9959;49.798;9.928;2023-07-29T13:36:28;98903.72;;;27.38;57.79
19624;BME280;9959;49.798;9.928;2023-07-29T13:38:55;98899.91;;;27.63;58.93